sensor_id;sensor_type;location;lat;lon;timestamp;pressure;altitude;pressure_sealevel;temperature;humidity
73429;BME280;61643;49.564;17.412;2023-06-22T00:01:28;98481.81;;;18.22;100.00
73429;BME280;61643;49.564;17.412;2023-06-22T00:03:54;98479.50;;;17.96;100.00
73429;BME280;61643;49.564;17.412;2023-06-22T00:06:20;98492.53;;;17.99;100.00
73429;BME280;61643;49.564;17.412;2023-06-22T00:08:46;98480.31;;;17.97;100.00
73429;BME280;61643;49.564;17.412;2023-06-22T00:11:12;98486.66;;;17.92;100.00
73429;BME280;61643;49.564;17.412;2023-06-22T00:13:39;98483.25;;;18.00;100.00
73429;BME280;61643;49.564;17.412;2023-06-22T00:16:05;98485.66;;;18.02;100.00
73429;BME280;61643;49.564;17.412;2023-06-22T00:18:31;98495.47;;;18.03;100.00
73429;BME280;61643;49.564;17.412;2023-06-22T00:20:59;98490.38;;;17.83;100.00
73429;BME280;61643;49.564;17.412;2023-06-22T00:23:25;98494.25;;;17.77;100.00
73429;BME280;61643;49.564;17.412;2023-06-22T00:25:52;98490.06;;;17.65;100.00
73429;BME280;61643;49.564;17.412;2023-06-22T00:28:18;98487.44;;;17.79;100.00
73429;BME280;61643;49.564;17.412;2023-06-22T00:30:44;98488.31;;;17.75;100.00
73429;BME280;61643;49.564;17.412;2023-06-22T00:33:11;98493.38;;;17.81;100.00
73429;BME280;61643;49.564;17.412;2023-06-22T00:35:37;98504.81;;;17.64;100.00
73429;BME280;61643;49.564;17.412;2023-06-22T00:38:03;98492.44;;;17.72;100.00
73429;BME280;61643;49.564;17.412;2023-06-22T00:40:31;98494.94;;;17.68;100.00
73429;BME280;61643;49.564;17.412;2023-06-22T00:42:58;98502.91;;;17.65;100.00
73429;BME280;61643;49.564;17.412;2023-06-22T00:45:24;98496.09;;;17.62;100.00
73429;BME280;61643;49.564;17.412;2023-06-22T00:47:56;98485.44;;;17.66;100.00
73429;BME280;61643;49.564;17.412;2023-06-22T00:50:24;98485.28;;;17.76;100.00
73429;BME280;61643;49.564;17.412;2023-06-22T00:52:52;98492.34;;;17.77;100.00
73429;BME280;61643;49.564;17.412;2023-06-22T00:55:20;98491.97;;;17.84;100.00
73429;BME280;61643;49.564;17.412;2023-06-22T00:57:47;98479.19;;;17.65;100.00
73429;BME280;61643;49.564;17.412;2023-06-22T01:00:15;98479.06;;;17.57;100.00
73429;BME280;61643;49.564;17.412;2023-06-22T01:02:46;98479.50;;;17.64;100.00
73429;BME280;61643;49.564;17.412;2023-06-22T01:05:13;98490.28;;;17.69;100.00
73429;BME280;61643;49.564;17.412;2023-06-22T01:07:47;98487.44;;;17.79;100.00
73429;BME280;61643;49.564;17.412;2023-06-22T01:10:27;98477.56;;;17.83;100.00
73429;BME280;61643;49.564;17.412;2023-06-22T01:13:01;98482.69;;;17.85;100.00
73429;BME280;61643;49.564;17.412;2023-06-22T01:15:31;98474.25;;;17.86;100.00
73429;BME280;61643;49.564;17.412;2023-06-22T01:17:59;98468.25;;;17.84;100.00
73429;BME280;61643;49.564;17.412;2023-06-22T01:20:27;98470.34;;;17.74;100.00
73429;BME280;61643;49.564;17.412;2023-06-22T01:23:39;98472.94;;;17.65;100.00
73429;BME280;61643;49.564;17.412;2023-06-22T01:26:18;98476.38;;;17.52;100.00
73429;BME280;61643;49.564;17.412;2023-06-22T01:28:53;98479.97;;;17.47;100.00
73429;BME280;61643;49.564;17.412;2023-06-22T01:31:29;98481.91;;;17.47;100.00
73429;BME280;61643;49.564;17.412;2023-06-22T01:33:59;98480.56;;;17.44;100.00
73429;BME280;61643;49.564;17.412;2023-06-22T01:36:27;98482.47;;;17.44;100.00
73429;BME280;61643;49.564;17.412;2023-06-22T01:38:53;98480.44;;;17.36;100.00
73429;BME280;61643;49.564;17.412;2023-06-22T01:41:20;98485.66;;;17.32;100.00
73429;BME280;61643;49.564;17.412;2023-06-22T01:43:47;98490.63;;;17.44;100.00
73429;BME280;61643;49.564;17.412;2023-06-22T01:46:14;98498.53;;;17.45;100.00
73429;BME280;61643;49.564;17.412;2023-06-22T01:48:41;98496.38;;;17.42;100.00
73429;BME280;61643;49.564;17.412;2023-06-22T01:51:07;98497.41;;;17.28;100.00
73429;BME280;61643;49.564;17.412;2023-06-22T01:53:33;98493.72;;;17.00;100.00
73429;BME280;61643;49.564;17.412;2023-06-22T01:55:59;98500.09;;;17.09;100.00
73429;BME280;61643;49.564;17.412;2023-06-22T01:58:27;98502.31;;;17.07;100.00
73429;BME280;61643;49.564;17.412;2023-06-22T02:00:58;98505.78;;;17.12;100.00
73429;BME280;61643;49.564;17.412;2023-06-22T02:03:40;98512.03;;;17.13;100.00
73429;BME280;61643;49.564;17.412;2023-06-22T02:06:15;98504.13;;;17.11;100.00
73429;BME280;61643;49.564;17.412;2023-06-22T02:08:48;98499.25;;;16.90;100.00
73429;BME280;61643;49.564;17.412;2023-06-22T02:11:16;98478.63;;;16.89;100.00
73429;BME280;61643;49.564;17.412;2023-06-22T02:13:44;98485.97;;;16.88;100.00
73429;BME280;61643;49.564;17.412;2023-06-22T02:16:11;98491.00;;;16.76;100.00
73429;BME280;61643;49.564;17.412;2023-06-22T02:18:38;98480.81;;;16.87;100.00
73429;BME280;61643;49.564;17.412;2023-06-22T02:21:06;98486.09;;;16.78;100.00
73429;BME280;61643;49.564;17.412;2023-06-22T02:23:32;98481.44;;;16.79;100.00
73429;BME280;61643;49.564;17.412;2023-06-22T02:26:02;98483.41;;;16.73;100.00
73429;BME280;61643;49.564;17.412;2023-06-22T02:28:28;98466.28;;;16.72;100.00
73429;BME280;61643;49.564;17.412;2023-06-22T02:30:54;98472.59;;;16.68;100.00
73429;BME280;61643;49.564;17.412;2023-06-22T02:33:20;98464.16;;;16.69;100.00
73429;BME280;61643;49.564;17.412;2023-06-22T02:35:46;98471.69;;;16.78;100.00
73429;BME280;61643;49.564;17.412;2023-06-22T02:38:15;98468.97;;;16.78;100.00
73429;BME280;61643;49.564;17.412;2023-06-22T02:40:41;98463.81;;;16.76;100.00
73429;BME280;61643;49.564;17.412;2023-06-22T02:43:07;98444.41;;;16.83;100.00
73429;BME280;61643;49.564;17.412;2023-06-22T02:45:33;98450.84;;;16.68;100.00
73429;BME280;61643;49.564;17.412;2023-06-22T02:47:58;98446.75;;;16.70;100.00
73429;BME280;61643;49.564;17.412;2023-06-22T02:50:25;98449.19;;;16.72;100.00
73429;BME280;61643;49.564;17.412;2023-06-22T02:52:50;98439.34;;;16.76;100.00
73429;BME280;61643;49.564;17.412;2023-06-22T02:55:16;98439.28;;;16.81;100.00
73429;BME280;61643;49.564;17.412;2023-06-22T02:57:42;98434.72;;;16.77;100.00
73429;BME280;61643;49.564;17.412;2023-06-22T03:00:10;98444.72;;;16.81;100.00
73429;BME280;61643;49.564;17.412;2023-06-22T03:02:44;98444.78;;;16.76;100.00
73429;BME280;61643;49.564;17.412;2023-06-22T03:05:10;98450.16;;;16.81;100.00
73429;BME280;61643;49.564;17.412;2023-06-22T03:07:40;98445.59;;;16.77;100.00
73429;BME280;61643;49.564;17.412;2023-06-22T03:10:08;98450.31;;;16.90;100.00
73429;BME280;61643;49.564;17.412;2023-06-22T03:12:35;98450.84;;;16.92;100.00
73429;BME280;61643;49.564;17.412;2023-06-22T03:15:01;98457.00;;;16.97;100.00
73429;BME280;61643;49.564;17.412;2023-06-22T03:17:27;98460.25;;;16.99;100.00
73429;BME280;61643;49.564;17.412;2023-06-22T03:19:53;98454.28;;;16.97;100.00
73429;BME280;61643;49.564;17.412;2023-06-22T03:22:19;98457.22;;;17.01;100.00
73429;BME280;61643;49.564;17.412;2023-06-22T03:24:45;98459.31;;;17.09;100.00
73429;BME280;61643;49.564;17.412;2023-06-22T03:27:10;98464.09;;;17.17;100.00
73429;BME280;61643;49.564;17.412;2023-06-22T03:29:36;98465.41;;;17.19;100.00
73429;BME280;61643;49.564;17.412;2023-06-22T03:32:03;98469.59;;;17.12;100.00
73429;BME280;61643;49.564;17.412;2023-06-22T03:34:31;98470.16;;;16.90;100.00
73429;BME280;61643;49.564;17.412;2023-06-22T03:37:00;98469.59;;;16.69;100.00
73429;BME280;61643;49.564;17.412;2023-06-22T03:39:26;98469.78;;;16.78;100.00
73429;BME280;61643;49.564;17.412;2023-06-22T03:41:52;98470.97;;;16.91;100.00
73429;BME280;61643;49.564;17.412;2023-06-22T03:44:18;98485.50;;;16.81;100.00
73429;BME280;61643;49.564;17.412;2023-06-22T03:46:44;98477.16;;;16.96;100.00
73429;BME280;61643;49.564;17.412;2023-06-22T03:49:10;98477.72;;;16.93;100.00
73429;BME280;61643;49.564;17.412;2023-06-22T03:51:35;98469.97;;;17.05;100.00
73429;BME280;61643;49.564;17.412;2023-06-22T03:54:01;98466.59;;;17.13;100.00
73429;BME280;61643;49.564;17.412;2023-06-22T03:56:27;98469.31;;;17.13;100.00
73429;BME280;61643;49.564;17.412;2023-06-22T03:58:53;98473.78;;;17.23;100.00
73429;BME280;61643;49.564;17.412;2023-06-22T04:01:19;98483.59;;;17.43;100.00
73429;BME280;61643;49.564;17.412;2023-06-22T04:03:45;98477.59;;;17.64;100.00
73429;BME280;61643;49.564;17.412;2023-06-22T04:06:13;98480.69;;;17.58;100.00
73429;BME280;61643;49.564;17.412;2023-06-22T04:08:39;98483.09;;;17.59;100.00
73429;BME280;61643;49.564;17.412;2023-06-22T04:11:06;98474.25;;;17.67;100.00
73429;BME280;61643;49.564;17.412;2023-06-22T04:13:32;98477.81;;;17.68;100.00
73429;BME280;61643;49.564;17.412;2023-06-22T04:15:58;98491.47;;;17.63;100.00
73429;BME280;61643;49.564;17.412;2023-06-22T04:18:24;98504.94;;;17.54;100.00
73429;BME280;61643;49.564;17.412;2023-06-22T04:20:50;98504.38;;;17.57;100.00
73429;BME280;61643;49.564;17.412;2023-06-22T04:23:16;98505.97;;;17.77;100.00
73429;BME280;61643;49.564;17.412;2023-06-22T04:25:42;98502.00;;;17.69;100.00
73429;BME280;61643;49.564;17.412;2023-06-22T04:28:08;98502.41;;;17.77;100.00
73429;BME280;61643;49.564;17.412;2023-06-22T04:30:38;98507.63;;;17.92;100.00
73429;BME280;61643;49.564;17.412;2023-06-22T04:33:13;98524.84;;;17.87;100.00
73429;BME280;61643;49.564;17.412;2023-06-22T04:35:39;98526.13;;;17.76;100.00
73429;BME280;61643;49.564;17.412;2023-06-22T04:38:07;98523.63;;;17.80;100.00
73429;BME280;61643;49.564;17.412;2023-06-22T04:40:33;98530.16;;;17.97;100.00
73429;BME280;61643;49.564;17.412;2023-06-22T04:42:59;98530.28;;;17.87;100.00
73429;BME280;61643;49.564;17.412;2023-06-22T04:45:28;98525.50;;;17.98;100.00
73429;BME280;61643;49.564;17.412;2023-06-22T04:47:55;98525.50;;;17.98;100.00
73429;BME280;61643;49.564;17.412;2023-06-22T04:50:21;98528.16;;;18.03;100.00
73429;BME280;61643;49.564;17.412;2023-06-22T04:52:47;98528.78;;;18.13;100.00
73429;BME280;61643;49.564;17.412;2023-06-22T04:55:14;98533.09;;;18.01;100.00
73429;BME280;61643;49.564;17.412;2023-06-22T04:57:47;98538.66;;;18.09;100.00
73429;BME280;61643;49.564;17.412;2023-06-22T05:02:44;98543.28;;;18.09;100.00
73429;BME280;61643;49.564;17.412;2023-06-22T05:05:13;98525.41;;;18.22;100.00
73429;BME280;61643;49.564;17.412;2023-06-22T05:07:42;98536.56;;;18.20;100.00
73429;BME280;61643;49.564;17.412;2023-06-22T05:10:10;98538.88;;;18.13;100.00
73429;BME280;61643;49.564;17.412;2023-06-22T05:12:37;98534.03;;;18.10;100.00
73429;BME280;61643;49.564;17.412;2023-06-22T05:15:04;98536.03;;;18.04;100.00
73429;BME280;61643;49.564;17.412;2023-06-22T05:17:30;98536.25;;;18.08;100.00
73429;BME280;61643;49.564;17.412;2023-06-22T05:19:56;98536.91;;;18.00;100.00
73429;BME280;61643;49.564;17.412;2023-06-22T05:22:22;98532.28;;;18.00;100.00
73429;BME280;61643;49.564;17.412;2023-06-22T05:24:48;98535.59;;;17.97;100.00
73429;BME280;61643;49.564;17.412;2023-06-22T05:27:14;98546.03;;;18.09;100.00
73429;BME280;61643;49.564;17.412;2023-06-22T05:29:40;98552.16;;;18.01;100.00
73429;BME280;61643;49.564;17.412;2023-06-22T05:32:08;98547.88;;;18.13;100.00
73429;BME280;61643;49.564;17.412;2023-06-22T05:34:34;98554.16;;;18.28;100.00
73429;BME280;61643;49.564;17.412;2023-06-22T05:37:00;98556.63;;;18.43;100.00
73429;BME280;61643;49.564;17.412;2023-06-22T05:39:26;98557.59;;;18.52;100.00
73429;BME280;61643;49.564;17.412;2023-06-22T05:41:52;98558.91;;;18.54;100.00
73429;BME280;61643;49.564;17.412;2023-06-22T05:44:18;98551.38;;;18.46;100.00
73429;BME280;61643;49.564;17.412;2023-06-22T05:46:45;98554.72;;;18.43;100.00
73429;BME280;61643;49.564;17.412;2023-06-22T05:49:13;98547.84;;;18.46;100.00
73429;BME280;61643;49.564;17.412;2023-06-22T05:51:39;98554.38;;;18.63;100.00
73429;BME280;61643;49.564;17.412;2023-06-22T05:54:05;98561.94;;;18.66;100.00
73429;BME280;61643;49.564;17.412;2023-06-22T05:56:31;98561.78;;;18.77;100.00
73429;BME280;61643;49.564;17.412;2023-06-22T05:58:57;98574.09;;;18.74;100.00
73429;BME280;61643;49.564;17.412;2023-06-22T06:01:23;98563.31;;;18.96;100.00
73429;BME280;61643;49.564;17.412;2023-06-22T06:03:52;98571.97;;;18.85;100.00
73429;BME280;61643;49.564;17.412;2023-06-22T06:06:19;98569.56;;;18.97;100.00
73429;BME280;61643;49.564;17.412;2023-06-22T06:08:54;98576.56;;;19.16;100.00
73429;BME280;61643;49.564;17.412;2023-06-22T06:11:21;98576.53;;;19.03;100.00
73429;BME280;61643;49.564;17.412;2023-06-22T06:13:47;98574.22;;;19.10;100.00
73429;BME280;61643;49.564;17.412;2023-06-22T06:16:13;98573.22;;;19.06;100.00
73429;BME280;61643;49.564;17.412;2023-06-22T06:18:39;98576.94;;;19.10;100.00
73429;BME280;61643;49.564;17.412;2023-06-22T06:21:05;98571.47;;;19.37;100.00
73429;BME280;61643;49.564;17.412;2023-06-22T06:23:31;98570.56;;;19.28;100.00
73429;BME280;61643;49.564;17.412;2023-06-22T06:25:57;98567.13;;;19.50;100.00
73429;BME280;61643;49.564;17.412;2023-06-22T06:28:24;98573.59;;;19.54;100.00
73429;BME280;61643;49.564;17.412;2023-06-22T06:30:50;98560.72;;;19.82;100.00
73429;BME280;61643;49.564;17.412;2023-06-22T06:33:17;98558.16;;;19.85;100.00
73429;BME280;61643;49.564;17.412;2023-06-22T06:35:43;98563.47;;;20.04;100.00
73429;BME280;61643;49.564;17.412;2023-06-22T06:38:09;98555.88;;;20.01;100.00
73429;BME280;61643;49.564;17.412;2023-06-22T06:40:36;98551.97;;;20.15;100.00
73429;BME280;61643;49.564;17.412;2023-06-22T06:43:02;98552.91;;;20.33;100.00
73429;BME280;61643;49.564;17.412;2023-06-22T06:45:28;98552.91;;;20.55;100.00
73429;BME280;61643;49.564;17.412;2023-06-22T06:47:56;98552.66;;;20.74;100.00
73429;BME280;61643;49.564;17.412;2023-06-22T06:50:22;98550.97;;;20.87;100.00
73429;BME280;61643;49.564;17.412;2023-06-22T06:52:48;98554.72;;;20.99;100.00
73429;BME280;61643;49.564;17.412;2023-06-22T06:55:16;98558.81;;;21.10;100.00
73429;BME280;61643;49.564;17.412;2023-06-22T06:57:43;98555.31;;;21.27;100.00
73429;BME280;61643;49.564;17.412;2023-06-22T07:00:11;98555.31;;;21.27;100.00
73429;BME280;61643;49.564;17.412;2023-06-22T07:02:40;98565.66;;;21.39;100.00
73429;BME280;61643;49.564;17.412;2023-06-22T07:05:07;98563.09;;;21.34;100.00
73429;BME280;61643;49.564;17.412;2023-06-22T07:07:33;98570.81;;;21.49;100.00
73429;BME280;61643;49.564;17.412;2023-06-22T07:10:00;98558.44;;;21.60;100.00
73429;BME280;61643;49.564;17.412;2023-06-22T07:12:26;98550.91;;;21.66;100.00
73429;BME280;61643;49.564;17.412;2023-06-22T07:14:52;98554.91;;;21.68;100.00
73429;BME280;61643;49.564;17.412;2023-06-22T07:17:19;98553.66;;;21.83;100.00
73429;BME280;61643;49.564;17.412;2023-06-22T07:19:45;98559.50;;;21.98;100.00
73429;BME280;61643;49.564;17.412;2023-06-22T07:22:11;98554.97;;;22.11;100.00
73429;BME280;61643;49.564;17.412;2023-06-22T07:24:37;98552.22;;;22.20;100.00
73429;BME280;61643;49.564;17.412;2023-06-22T07:27:03;98555.94;;;22.24;100.00
73429;BME280;61643;49.564;17.412;2023-06-22T07:29:30;98549.78;;;22.27;100.00
73429;BME280;61643;49.564;17.412;2023-06-22T07:31:57;98545.28;;;22.31;100.00
73429;BME280;61643;49.564;17.412;2023-06-22T07:34:23;98552.03;;;22.42;100.00
73429;BME280;61643;49.564;17.412;2023-06-22T07:36:49;98550.72;;;22.48;100.00
73429;BME280;61643;49.564;17.412;2023-06-22T07:39:15;98545.22;;;22.48;100.00
73429;BME280;61643;49.564;17.412;2023-06-22T07:41:41;98545.06;;;22.53;100.00
73429;BME280;61643;49.564;17.412;2023-06-22T07:44:07;98553.75;;;22.55;100.00
73429;BME280;61643;49.564;17.412;2023-06-22T07:46:33;98542.13;;;22.58;100.00
73429;BME280;61643;49.564;17.412;2023-06-22T07:48:59;98548.13;;;22.60;100.00
73429;BME280;61643;49.564;17.412;2023-06-22T07:51:28;98543.28;;;22.57;100.00
73429;BME280;61643;49.564;17.412;2023-06-22T07:53:54;98554.75;;;22.68;100.00
73429;BME280;61643;49.564;17.412;2023-06-22T07:56:20;98549.56;;;22.75;100.00
73429;BME280;61643;49.564;17.412;2023-06-22T07:58:47;98553.09;;;22.75;100.00
73429;BME280;61643;49.564;17.412;2023-06-22T08:01:16;98551.16;;;22.76;100.00
73429;BME280;61643;49.564;17.412;2023-06-22T08:03:43;98555.84;;;22.75;100.00
73429;BME280;61643;49.564;17.412;2023-06-22T08:06:09;98554.38;;;22.78;100.00
73429;BME280;61643;49.564;17.412;2023-06-22T08:08:36;98548.06;;;22.86;100.00
73429;BME280;61643;49.564;17.412;2023-06-22T08:11:02;98556.06;;;22.99;100.00
73429;BME280;61643;49.564;17.412;2023-06-22T08:13:28;98554.38;;;23.16;100.00
73429;BME280;61643;49.564;17.412;2023-06-22T08:15:54;98555.31;;;23.20;100.00
73429;BME280;61643;49.564;17.412;2023-06-22T08:18:20;98559.50;;;23.26;100.00
73429;BME280;61643;49.564;17.412;2023-06-22T08:20:46;98557.22;;;23.28;100.00
73429;BME280;61643;49.564;17.412;2023-06-22T08:23:12;98560.72;;;23.37;100.00
73429;BME280;61643;49.564;17.412;2023-06-22T08:25:38;98557.50;;;23.35;100.00
73429;BME280;61643;49.564;17.412;2023-06-22T08:28:05;98567.34;;;23.44;100.00
73429;BME280;61643;49.564;17.412;2023-06-22T08:30:31;98566.84;;;23.51;100.00
73429;BME280;61643;49.564;17.412;2023-06-22T08:32:57;98563.75;;;23.52;100.00
73429;BME280;61643;49.564;17.412;2023-06-22T08:35:23;98558.19;;;23.61;100.00
73429;BME280;61643;49.564;17.412;2023-06-22T08:37:49;98549.41;;;23.68;100.00
73429;BME280;61643;49.564;17.412;2023-06-22T08:40:18;98543.38;;;23.74;100.00
73429;BME280;61643;49.564;17.412;2023-06-22T08:42:46;98536.09;;;23.78;100.00
73429;BME280;61643;49.564;17.412;2023-06-22T08:45:13;98527.44;;;23.88;100.00
73429;BME280;61643;49.564;17.412;2023-06-22T08:47:40;98537.75;;;23.91;100.00
73429;BME280;61643;49.564;17.412;2023-06-22T08:50:08;98538.00;;;23.98;100.00
73429;BME280;61643;49.564;17.412;2023-06-22T08:52:34;98537.81;;;24.03;100.00
73429;BME280;61643;49.564;17.412;2023-06-22T08:55:00;98535.00;;;24.12;100.00
73429;BME280;61643;49.564;17.412;2023-06-22T08:57:27;98544.88;;;24.13;100.00
73429;BME280;61643;49.564;17.412;2023-06-22T08:59:53;98532.19;;;24.21;100.00
73429;BME280;61643;49.564;17.412;2023-06-22T09:02:26;98538.41;;;24.30;100.00
73429;BME280;61643;49.564;17.412;2023-06-22T09:04:58;98536.94;;;24.32;100.00
73429;BME280;61643;49.564;17.412;2023-06-22T09:07:24;98525.03;;;24.40;100.00
73429;BME280;61643;49.564;17.412;2023-06-22T09:09:51;98520.59;;;24.48;100.00
73429;BME280;61643;49.564;17.412;2023-06-22T09:12:18;98526.66;;;24.54;100.00
73429;BME280;61643;49.564;17.412;2023-06-22T09:14:46;98519.47;;;24.61;100.00
73429;BME280;61643;49.564;17.412;2023-06-22T09:17:12;98512.69;;;24.71;100.00
73429;BME280;61643;49.564;17.412;2023-06-22T09:19:38;98514.00;;;24.85;100.00
73429;BME280;61643;49.564;17.412;2023-06-22T09:22:05;98515.06;;;24.93;100.00
73429;BME280;61643;49.564;17.412;2023-06-22T09:24:32;98521.59;;;25.01;100.00
73429;BME280;61643;49.564;17.412;2023-06-22T09:26:58;98518.88;;;25.25;88.24
73429;BME280;61643;49.564;17.412;2023-06-22T09:29:24;98509.31;;;25.22;85.95
73429;BME280;61643;49.564;17.412;2023-06-22T09:31:50;98514.25;;;25.41;84.29
73429;BME280;61643;49.564;17.412;2023-06-22T09:34:19;98503.13;;;25.37;80.27
73429;BME280;61643;49.564;17.412;2023-06-22T09:36:46;98507.34;;;25.59;84.40
73429;BME280;61643;49.564;17.412;2023-06-22T09:39:12;98498.97;;;25.68;83.90
73429;BME280;61643;49.564;17.412;2023-06-22T09:41:38;98495.72;;;25.78;84.32
73429;BME280;61643;49.564;17.412;2023-06-22T09:44:04;98493.66;;;25.75;82.45
73429;BME280;61643;49.564;17.412;2023-06-22T09:46:30;98481.63;;;25.67;84.92
73429;BME280;61643;49.564;17.412;2023-06-22T09:48:56;98475.41;;;25.70;84.00
73429;BME280;61643;49.564;17.412;2023-06-22T09:51:23;98488.16;;;25.63;83.42
73429;BME280;61643;49.564;17.412;2023-06-22T09:53:50;98488.16;;;25.63;80.22
73429;BME280;61643;49.564;17.412;2023-06-22T09:56:16;98494.47;;;25.75;82.27
73429;BME280;61643;49.564;17.412;2023-06-22T09:58:43;98493.88;;;25.82;82.07
73429;BME280;61643;49.564;17.412;2023-06-22T10:01:10;98492.75;;;25.99;82.05
73429;BME280;61643;49.564;17.412;2023-06-22T10:03:36;98500.59;;;25.97;80.98
73429;BME280;61643;49.564;17.412;2023-06-22T10:06:03;98497.16;;;25.87;80.39
73429;BME280;61643;49.564;17.412;2023-06-22T10:08:29;98485.38;;;26.03;80.42
73429;BME280;61643;49.564;17.412;2023-06-22T10:10:55;98482.63;;;26.03;81.13
73429;BME280;61643;49.564;17.412;2023-06-22T10:13:21;98484.66;;;25.90;79.65
73429;BME280;61643;49.564;17.412;2023-06-22T10:15:47;98485.78;;;25.89;81.62
73429;BME280;61643;49.564;17.412;2023-06-22T10:18:17;98483.34;;;26.00;81.96
73429;BME280;61643;49.564;17.412;2023-06-22T10:20:44;98480.41;;;26.08;81.55
73429;BME280;61643;49.564;17.412;2023-06-22T10:23:10;98485.75;;;26.29;80.35
73429;BME280;61643;49.564;17.412;2023-06-22T10:25:36;98475.81;;;26.40;79.34
73429;BME280;61643;49.564;17.412;2023-06-22T10:28:02;98474.47;;;26.50;78.73
73429;BME280;61643;49.564;17.412;2023-06-22T10:30:29;98480.81;;;26.50;79.48
73429;BME280;61643;49.564;17.412;2023-06-22T10:32:55;98478.09;;;26.38;79.65
73429;BME280;61643;49.564;17.412;2023-06-22T10:35:21;98481.56;;;26.35;79.50
73429;BME280;61643;49.564;17.412;2023-06-22T10:37:47;98479.56;;;26.20;80.25
73429;BME280;61643;49.564;17.412;2023-06-22T10:40:13;98473.53;;;26.02;78.66
73429;BME280;61643;49.564;17.412;2023-06-22T10:42:40;98482.63;;;26.03;80.06
73429;BME280;61643;49.564;17.412;2023-06-22T10:45:07;98471.25;;;26.04;80.68
73429;BME280;61643;49.564;17.412;2023-06-22T10:47:34;98471.50;;;25.99;79.70
73429;BME280;61643;49.564;17.412;2023-06-22T10:50:00;98472.50;;;26.07;80.33
73429;BME280;61643;49.564;17.412;2023-06-22T10:52:26;98465.38;;;26.06;79.96
73429;BME280;61643;49.564;17.412;2023-06-22T10:54:52;98458.69;;;26.07;79.76
73429;BME280;61643;49.564;17.412;2023-06-22T10:57:18;98457.75;;;26.15;80.24
73429;BME280;61643;49.564;17.412;2023-06-22T10:59:44;98461.22;;;26.12;79.38
73429;BME280;61643;49.564;17.412;2023-06-22T11:02:10;98460.31;;;26.08;80.52
73429;BME280;61643;49.564;17.412;2023-06-22T11:04:36;98456.22;;;26.17;79.60
73429;BME280;61643;49.564;17.412;2023-06-22T11:07:02;98458.19;;;26.17;79.86
73429;BME280;61643;49.564;17.412;2023-06-22T11:09:28;98449.59;;;26.18;77.58
73429;BME280;61643;49.564;17.412;2023-06-22T11:11:55;98438.75;;;26.25;76.86
73429;BME280;61643;49.564;17.412;2023-06-22T11:14:22;98453.34;;;26.26;76.82
73429;BME280;61643;49.564;17.412;2023-06-22T11:16:48;98438.66;;;26.37;75.95
73429;BME280;61643;49.564;17.412;2023-06-22T11:19:14;98441.50;;;26.41;78.45
73429;BME280;61643;49.564;17.412;2023-06-22T11:21:40;98436.34;;;26.39;77.00
73429;BME280;61643;49.564;17.412;2023-06-22T11:24:06;98433.03;;;26.34;76.97
73429;BME280;61643;49.564;17.412;2023-06-22T11:26:32;98424.06;;;26.21;77.63
73429;BME280;61643;49.564;17.412;2023-06-22T11:28:58;98423.25;;;26.21;76.87
73429;BME280;61643;49.564;17.412;2023-06-22T11:31:25;98427.41;;;26.15;78.32
73429;BME280;61643;49.564;17.412;2023-06-22T11:33:51;98418.06;;;26.19;78.84
73429;BME280;61643;49.564;17.412;2023-06-22T11:36:17;98415.59;;;26.30;77.42
73429;BME280;61643;49.564;17.412;2023-06-22T11:38:43;98422.28;;;26.44;77.07
73429;BME280;61643;49.564;17.412;2023-06-22T11:41:09;98424.34;;;26.48;74.28
73429;BME280;61643;49.564;17.412;2023-06-22T11:43:36;98420.59;;;26.40;75.16
73429;BME280;61643;49.564;17.412;2023-06-22T11:46:03;98421.84;;;26.42;73.92
73429;BME280;61643;49.564;17.412;2023-06-22T11:48:30;98412.59;;;26.51;72.94
73429;BME280;61643;49.564;17.412;2023-06-22T11:50:56;98410.88;;;26.77;75.14
73429;BME280;61643;49.564;17.412;2023-06-22T11:53:24;98411.13;;;27.04;74.93
73429;BME280;61643;49.564;17.412;2023-06-22T11:55:50;98405.88;;;27.33;75.79
73429;BME280;61643;49.564;17.412;2023-06-22T11:58:17;98404.09;;;27.60;76.66
73429;BME280;61643;49.564;17.412;2023-06-22T12:00:43;98399.63;;;27.75;72.12
73429;BME280;61643;49.564;17.412;2023-06-22T12:03:08;98397.19;;;27.89;71.95
73429;BME280;61643;49.564;17.412;2023-06-22T12:05:35;98393.59;;;28.08;66.89
73429;BME280;61643;49.564;17.412;2023-06-22T12:08:01;98395.91;;;27.86;65.81
73429;BME280;61643;49.564;17.412;2023-06-22T12:10:27;98386.16;;;28.12;68.76
73429;BME280;61643;49.564;17.412;2023-06-22T12:12:56;98385.91;;;28.20;67.66
73429;BME280;61643;49.564;17.412;2023-06-22T12:15:23;98391.53;;;28.24;67.85
73429;BME280;61643;49.564;17.412;2023-06-22T12:17:49;98380.78;;;28.00;64.11
73429;BME280;61643;49.564;17.412;2023-06-22T12:20:15;98376.19;;;28.07;66.54
73429;BME280;61643;49.564;17.412;2023-06-22T12:22:41;98371.44;;;28.08;65.39
73429;BME280;61643;49.564;17.412;2023-06-22T12:25:08;98365.28;;;27.95;64.46
73429;BME280;61643;49.564;17.412;2023-06-22T12:27:35;98372.91;;;27.82;62.66
73429;BME280;61643;49.564;17.412;2023-06-22T12:30:01;98369.47;;;28.08;62.99
73429;BME280;61643;49.564;17.412;2023-06-22T12:32:27;98359.03;;;28.21;64.18
73429;BME280;61643;49.564;17.412;2023-06-22T12:34:53;98364.06;;;28.38;63.44
73429;BME280;61643;49.564;17.412;2023-06-22T12:37:19;98359.53;;;28.26;60.60
73429;BME280;61643;49.564;17.412;2023-06-22T12:39:45;98363.16;;;28.30;62.93
73429;BME280;61643;49.564;17.412;2023-06-22T12:42:11;98363.84;;;28.24;63.79
73429;BME280;61643;49.564;17.412;2023-06-22T12:44:38;98359.59;;;28.30;65.65